Terminal Aerodrome Forecast
Issued by NWS

Home | Current Version | Previous Version | Text Only | Print | Product List | Glossary On
Versions: 1 2 3 4 5 6 7 8 9 10 11 12 13 14 15 16 17 18 19 20 21 22 23 24
000
FTUS43 KICT 160500
TAFRSL
TAF
KRSL 160522Z 1606/1706 08005KT P6SM SCT030
      TEMPO 1608/1612 3SM BR BKN010
     FM161300 14007KT P6SM BKN020
     FM161600 16012KT P6SM BKN035=

USA.gov is the U.S. government's official web portal to all federal, state and local government web resources and services.